sensor_id;sensor_type;location;lat;lon;timestamp;P1;durP1;ratioP1;P2;durP2;ratioP2
1174;SDS011;576;48.418;10.074;2023-06-26T00:01:28;7.10;;;6.50;;
1174;SDS011;576;48.418;10.074;2023-06-26T00:03:59;8.50;;;7.60;;
1174;SDS011;576;48.418;10.074;2023-06-26T00:06:28;7.53;;;6.73;;
1174;SDS011;576;48.418;10.074;2023-06-26T00:08:56;6.63;;;6.13;;
1174;SDS011;576;48.418;10.074;2023-06-26T00:11:25;7.40;;;6.80;;
1174;SDS011;576;48.418;10.074;2023-06-26T00:13:54;7.40;;;6.80;;
1174;SDS011;576;48.418;10.074;2023-06-26T00:16:22;6.83;;;6.23;;
1174;SDS011;576;48.418;10.074;2023-06-26T00:18:50;7.00;;;6.30;;
1174;SDS011;576;48.418;10.074;2023-06-26T00:21:19;7.37;;;6.77;;
1174;SDS011;576;48.418;10.074;2023-06-26T00:23:48;7.60;;;6.80;;
1174;SDS011;576;48.418;10.074;2023-06-26T00:26:16;8.53;;;7.73;;
1174;SDS011;576;48.418;10.074;2023-06-26T00:28:44;8.30;;;7.07;;
1174;SDS011;576;48.418;10.074;2023-06-26T00:31:12;9.33;;;8.53;;
1174;SDS011;576;48.418;10.074;2023-06-26T00:33:40;6.50;;;5.90;;
1174;SDS011;576;48.418;10.074;2023-06-26T00:36:08;7.33;;;6.67;;
1174;SDS011;576;48.418;10.074;2023-06-26T00:38:38;7.03;;;6.47;;
1174;SDS011;576;48.418;10.074;2023-06-26T00:41:06;6.83;;;6.33;;
1174;SDS011;576;48.418;10.074;2023-06-26T00:43:39;7.30;;;6.70;;
1174;SDS011;576;48.418;10.074;2023-06-26T00:46:10;6.83;;;6.30;;
1174;SDS011;576;48.418;10.074;2023-06-26T00:48:41;7.50;;;6.80;;
1174;SDS011;576;48.418;10.074;2023-06-26T00:51:11;6.90;;;6.37;;
1174;SDS011;576;48.418;10.074;2023-06-26T00:53:41;7.00;;;6.40;;
1174;SDS011;576;48.418;10.074;2023-06-26T00:56:10;6.70;;;6.20;;
1174;SDS011;576;48.418;10.074;2023-06-26T00:58:39;7.60;;;6.90;;
1174;SDS011;576;48.418;10.074;2023-06-26T01:01:07;7.37;;;6.77;;
1174;SDS011;576;48.418;10.074;2023-06-26T01:03:42;7.70;;;6.10;;
1174;SDS011;576;48.418;10.074;2023-06-26T01:06:11;6.73;;;6.13;;
1174;SDS011;576;48.418;10.074;2023-06-26T01:08:43;7.30;;;6.70;;
1174;SDS011;576;48.418;10.074;2023-06-26T01:11:12;7.20;;;6.60;;
1174;SDS011;576;48.418;10.074;2023-06-26T01:13:42;7.63;;;6.93;;
1174;SDS011;576;48.418;10.074;2023-06-26T01:16:11;7.43;;;6.73;;
1174;SDS011;576;48.418;10.074;2023-06-26T01:18:40;8.10;;;7.30;;
1174;SDS011;576;48.418;10.074;2023-06-26T01:21:12;6.87;;;6.37;;
1174;SDS011;576;48.418;10.074;2023-06-26T01:23:47;7.57;;;6.90;;
1174;SDS011;576;48.418;10.074;2023-06-26T01:26:32;7.00;;;6.40;;
1174;SDS011;576;48.418;10.074;2023-06-26T01:29:03;7.77;;;7.00;;
1174;SDS011;576;48.418;10.074;2023-06-26T01:31:33;7.63;;;6.83;;
1174;SDS011;576;48.418;10.074;2023-06-26T01:34:02;7.70;;;7.10;;
1174;SDS011;576;48.418;10.074;2023-06-26T01:36:31;6.13;;;5.63;;
1174;SDS011;576;48.418;10.074;2023-06-26T01:38:59;7.83;;;7.07;;
1174;SDS011;576;48.418;10.074;2023-06-26T01:41:27;7.30;;;6.70;;
1174;SDS011;576;48.418;10.074;2023-06-26T01:44:07;6.90;;;6.30;;
1174;SDS011;576;48.418;10.074;2023-06-26T01:46:43;7.07;;;6.47;;
1174;SDS011;576;48.418;10.074;2023-06-26T01:49:18;6.80;;;6.30;;
1174;SDS011;576;48.418;10.074;2023-06-26T01:51:53;6.63;;;6.17;;
1174;SDS011;576;48.418;10.074;2023-06-26T01:54:25;7.83;;;7.13;;
1174;SDS011;576;48.418;10.074;2023-06-26T01:56:58;7.30;;;6.70;;
1174;SDS011;576;48.418;10.074;2023-06-26T01:59:29;6.53;;;6.03;;
1174;SDS011;576;48.418;10.074;2023-06-26T02:02:01;7.37;;;6.77;;
1174;SDS011;576;48.418;10.074;2023-06-26T02:04:29;7.43;;;6.83;;
1174;SDS011;576;48.418;10.074;2023-06-26T02:06:57;7.80;;;7.10;;
1174;SDS011;576;48.418;10.074;2023-06-26T02:09:28;6.97;;;6.37;;
1174;SDS011;576;48.418;10.074;2023-06-26T02:11:56;6.90;;;6.30;;
1174;SDS011;576;48.418;10.074;2023-06-26T02:14:24;6.83;;;6.13;;
1174;SDS011;576;48.418;10.074;2023-06-26T02:16:54;6.47;;;5.90;;
1174;SDS011;576;48.418;10.074;2023-06-26T02:19:25;8.40;;;7.60;;
1174;SDS011;576;48.418;10.074;2023-06-26T02:21:53;7.50;;;6.90;;
1174;SDS011;576;48.418;10.074;2023-06-26T02:24:23;6.70;;;6.17;;
1174;SDS011;576;48.418;10.074;2023-06-26T02:26:53;7.23;;;6.63;;
1174;SDS011;576;48.418;10.074;2023-06-26T02:29:22;7.00;;;6.40;;
1174;SDS011;576;48.418;10.074;2023-06-26T02:31:50;6.97;;;6.37;;
1174;SDS011;576;48.418;10.074;2023-06-26T02:34:19;7.07;;;6.47;;
1174;SDS011;576;48.418;10.074;2023-06-26T02:36:47;7.70;;;7.10;;
1174;SDS011;576;48.418;10.074;2023-06-26T02:39:16;6.83;;;6.27;;
1174;SDS011;576;48.418;10.074;2023-06-26T02:41:44;8.53;;;7.77;;
1174;SDS011;576;48.418;10.074;2023-06-26T02:44:14;8.03;;;7.43;;
1174;SDS011;576;48.418;10.074;2023-06-26T02:46:42;7.73;;;6.97;;
1174;SDS011;576;48.418;10.074;2023-06-26T02:49:10;7.07;;;6.47;;
1174;SDS011;576;48.418;10.074;2023-06-26T02:51:40;6.80;;;6.20;;
1174;SDS011;576;48.418;10.074;2023-06-26T02:54:14;7.53;;;6.93;;
1174;SDS011;576;48.418;10.074;2023-06-26T02:56:45;6.60;;;6.10;;
1174;SDS011;576;48.418;10.074;2023-06-26T02:59:18;6.67;;;6.10;;
1174;SDS011;576;48.418;10.074;2023-06-26T03:01:47;7.57;;;6.87;;
1174;SDS011;576;48.418;10.074;2023-06-26T03:04:15;7.83;;;7.03;;
1174;SDS011;576;48.418;10.074;2023-06-26T03:06:46;6.63;;;6.13;;
1174;SDS011;576;48.418;10.074;2023-06-26T03:09:14;7.33;;;6.73;;
1174;SDS011;576;48.418;10.074;2023-06-26T03:11:43;7.60;;;6.93;;
1174;SDS011;576;48.418;10.074;2023-06-26T03:14:11;7.00;;;6.40;;
1174;SDS011;576;48.418;10.074;2023-06-26T03:16:40;7.77;;;6.97;;
1174;SDS011;576;48.418;10.074;2023-06-26T03:19:08;7.50;;;6.90;;
1174;SDS011;576;48.418;10.074;2023-06-26T03:21:58;7.13;;;6.57;;
1174;SDS011;576;48.418;10.074;2023-06-26T03:24:28;7.27;;;6.67;;
1174;SDS011;576;48.418;10.074;2023-06-26T03:26:57;7.87;;;7.17;;
1174;SDS011;576;48.418;10.074;2023-06-26T03:29:25;7.50;;;6.80;;
1174;SDS011;576;48.418;10.074;2023-06-26T03:31:55;8.37;;;7.67;;
1174;SDS011;576;48.418;10.074;2023-06-26T03:34:23;7.80;;;7.10;;
1174;SDS011;576;48.418;10.074;2023-06-26T03:36:53;7.30;;;6.70;;
1174;SDS011;576;48.418;10.074;2023-06-26T03:39:23;7.83;;;7.23;;
1174;SDS011;576;48.418;10.074;2023-06-26T03:41:51;8.47;;;7.67;;
1174;SDS011;576;48.418;10.074;2023-06-26T03:44:22;7.47;;;6.87;;
1174;SDS011;576;48.418;10.074;2023-06-26T03:46:50;8.57;;;7.80;;
1174;SDS011;576;48.418;10.074;2023-06-26T03:49:18;8.00;;;7.30;;
1174;SDS011;576;48.418;10.074;2023-06-26T03:51:46;8.57;;;7.83;;
1174;SDS011;576;48.418;10.074;2023-06-26T03:54:14;7.70;;;7.00;;
1174;SDS011;576;48.418;10.074;2023-06-26T03:56:44;7.70;;;7.00;;
1174;SDS011;576;48.418;10.074;2023-06-26T03:59:12;8.53;;;6.30;;
1174;SDS011;576;48.418;10.074;2023-06-26T04:01:40;6.83;;;6.23;;
1174;SDS011;576;48.418;10.074;2023-06-26T04:04:09;8.17;;;7.40;;
1174;SDS011;576;48.418;10.074;2023-06-26T04:06:37;7.33;;;6.73;;
1174;SDS011;576;48.418;10.074;2023-06-26T04:09:06;7.23;;;6.63;;
1174;SDS011;576;48.418;10.074;2023-06-26T04:11:34;7.60;;;7.00;;
1174;SDS011;576;48.418;10.074;2023-06-26T04:14:03;7.70;;;7.10;;
1174;SDS011;576;48.418;10.074;2023-06-26T04:16:32;7.73;;;6.93;;
1174;SDS011;576;48.418;10.074;2023-06-26T04:19:00;6.70;;;6.10;;
1174;SDS011;576;48.418;10.074;2023-06-26T04:21:29;6.60;;;6.10;;
1174;SDS011;576;48.418;10.074;2023-06-26T04:23:57;6.67;;;6.07;;
1174;SDS011;576;48.418;10.074;2023-06-26T04:26:25;7.60;;;7.00;;
1174;SDS011;576;48.418;10.074;2023-06-26T04:28:54;7.67;;;6.97;;
1174;SDS011;576;48.418;10.074;2023-06-26T04:31:23;7.57;;;6.77;;
1174;SDS011;576;48.418;10.074;2023-06-26T04:33:52;9.37;;;8.10;;
1174;SDS011;576;48.418;10.074;2023-06-26T04:36:21;7.10;;;6.50;;
1174;SDS011;576;48.418;10.074;2023-06-26T04:38:49;8.23;;;7.43;;
1174;SDS011;576;48.418;10.074;2023-06-26T04:41:17;7.43;;;6.83;;
1174;SDS011;576;48.418;10.074;2023-06-26T04:43:46;8.07;;;7.40;;
1174;SDS011;576;48.418;10.074;2023-06-26T04:46:14;7.13;;;6.40;;
1174;SDS011;576;48.418;10.074;2023-06-26T04:48:43;8.33;;;7.63;;
1174;SDS011;576;48.418;10.074;2023-06-26T04:51:12;7.97;;;7.17;;
1174;SDS011;576;48.418;10.074;2023-06-26T04:53:40;7.87;;;7.27;;
1174;SDS011;576;48.418;10.074;2023-06-26T04:56:08;11.13;;;9.40;;
1174;SDS011;576;48.418;10.074;2023-06-26T04:58:37;8.00;;;7.30;;
1174;SDS011;576;48.418;10.074;2023-06-26T05:01:06;7.97;;;6.73;;
1174;SDS011;576;48.418;10.074;2023-06-26T05:03:34;7.03;;;6.43;;
1174;SDS011;576;48.418;10.074;2023-06-26T05:06:05;7.70;;;7.00;;
1174;SDS011;576;48.418;10.074;2023-06-26T05:08:35;7.63;;;7.03;;
1174;SDS011;576;48.418;10.074;2023-06-26T05:11:03;6.73;;;6.13;;
1174;SDS011;576;48.418;10.074;2023-06-26T05:13:31;8.70;;;7.77;;
1174;SDS011;576;48.418;10.074;2023-06-26T05:15:59;7.07;;;6.50;;
1174;SDS011;576;48.418;10.074;2023-06-26T05:18:28;7.60;;;7.00;;
1174;SDS011;576;48.418;10.074;2023-06-26T05:20:56;8.07;;;7.43;;
1174;SDS011;576;48.418;10.074;2023-06-26T05:23:26;7.57;;;6.37;;
1174;SDS011;576;48.418;10.074;2023-06-26T05:25:57;7.37;;;6.73;;
1174;SDS011;576;48.418;10.074;2023-06-26T05:28:26;6.90;;;6.30;;
1174;SDS011;576;48.418;10.074;2023-06-26T05:30:57;8.10;;;7.40;;
1174;SDS011;576;48.418;10.074;2023-06-26T05:33:26;7.83;;;7.13;;
1174;SDS011;576;48.418;10.074;2023-06-26T05:35:55;7.63;;;6.93;;
1174;SDS011;576;48.418;10.074;2023-06-26T05:38:26;7.90;;;7.20;;
1174;SDS011;576;48.418;10.074;2023-06-26T05:40:55;7.10;;;6.40;;
1174;SDS011;576;48.418;10.074;2023-06-26T05:43:24;9.00;;;7.20;;
1174;SDS011;576;48.418;10.074;2023-06-26T05:45:55;7.67;;;7.00;;
1174;SDS011;576;48.418;10.074;2023-06-26T05:48:24;7.13;;;6.43;;
1174;SDS011;576;48.418;10.074;2023-06-26T05:50:52;7.27;;;6.50;;
1174;SDS011;576;48.418;10.074;2023-06-26T05:53:21;8.73;;;7.93;;
1174;SDS011;576;48.418;10.074;2023-06-26T05:55:51;8.20;;;7.50;;
1174;SDS011;576;48.418;10.074;2023-06-26T05:58:20;7.73;;;6.93;;
1174;SDS011;576;48.418;10.074;2023-06-26T06:00:51;7.60;;;6.90;;
1174;SDS011;576;48.418;10.074;2023-06-26T06:03:19;8.80;;;7.40;;
1174;SDS011;576;48.418;10.074;2023-06-26T06:05:47;8.97;;;8.00;;
1174;SDS011;576;48.418;10.074;2023-06-26T06:08:15;8.00;;;7.40;;
1174;SDS011;576;48.418;10.074;2023-06-26T06:10:44;8.63;;;7.93;;
1174;SDS011;576;48.418;10.074;2023-06-26T06:13:13;8.40;;;7.60;;
1174;SDS011;576;48.418;10.074;2023-06-26T06:15:41;7.10;;;6.50;;
1174;SDS011;576;48.418;10.074;2023-06-26T06:18:09;8.70;;;7.60;;
1174;SDS011;576;48.418;10.074;2023-06-26T06:20:38;7.93;;;7.23;;
1174;SDS011;576;48.418;10.074;2023-06-26T06:23:06;8.63;;;7.00;;
1174;SDS011;576;48.418;10.074;2023-06-26T06:25:34;9.03;;;8.10;;
1174;SDS011;576;48.418;10.074;2023-06-26T06:28:03;8.37;;;7.63;;
1174;SDS011;576;48.418;10.074;2023-06-26T06:30:33;8.60;;;7.83;;
1174;SDS011;576;48.418;10.074;2023-06-26T06:33:11;8.27;;;7.40;;
1174;SDS011;576;48.418;10.074;2023-06-26T06:35:39;8.00;;;7.30;;
1174;SDS011;576;48.418;10.074;2023-06-26T06:38:08;8.57;;;7.77;;
1174;SDS011;576;48.418;10.074;2023-06-26T06:40:36;8.93;;;8.20;;
1174;SDS011;576;48.418;10.074;2023-06-26T06:43:04;8.13;;;7.40;;
1174;SDS011;576;48.418;10.074;2023-06-26T06:45:34;8.17;;;7.47;;
1174;SDS011;576;48.418;10.074;2023-06-26T06:48:04;8.07;;;7.27;;
1174;SDS011;576;48.418;10.074;2023-06-26T06:50:32;8.80;;;7.90;;
1174;SDS011;576;48.418;10.074;2023-06-26T06:53:00;7.93;;;7.23;;
1174;SDS011;576;48.418;10.074;2023-06-26T06:55:29;8.13;;;7.33;;
1174;SDS011;576;48.418;10.074;2023-06-26T06:57:57;8.93;;;8.13;;
1174;SDS011;576;48.418;10.074;2023-06-26T07:00:25;7.20;;;6.60;;
1174;SDS011;576;48.418;10.074;2023-06-26T07:02:55;7.90;;;7.10;;
1174;SDS011;576;48.418;10.074;2023-06-26T07:05:23;7.37;;;6.60;;
1174;SDS011;576;48.418;10.074;2023-06-26T07:07:52;7.40;;;6.70;;
1174;SDS011;576;48.418;10.074;2023-06-26T07:10:20;8.37;;;7.67;;
1174;SDS011;576;48.418;10.074;2023-06-26T07:12:49;6.90;;;6.30;;
1174;SDS011;576;48.418;10.074;2023-06-26T07:15:17;8.00;;;7.30;;
1174;SDS011;576;48.418;10.074;2023-06-26T07:17:45;8.90;;;8.10;;
1174;SDS011;576;48.418;10.074;2023-06-26T07:20:14;7.60;;;7.00;;
1174;SDS011;576;48.418;10.074;2023-06-26T07:22:43;7.60;;;7.00;;
1174;SDS011;576;48.418;10.074;2023-06-26T07:25:12;8.13;;;7.33;;
1174;SDS011;576;48.418;10.074;2023-06-26T07:27:40;6.83;;;6.20;;
1174;SDS011;576;48.418;10.074;2023-06-26T07:30:09;7.23;;;6.53;;
1174;SDS011;576;48.418;10.074;2023-06-26T07:32:38;7.07;;;6.47;;
1174;SDS011;576;48.418;10.074;2023-06-26T07:35:10;7.40;;;6.80;;
1174;SDS011;576;48.418;10.074;2023-06-26T07:37:40;7.90;;;7.23;;
1174;SDS011;576;48.418;10.074;2023-06-26T07:40:09;7.83;;;7.07;;
1174;SDS011;576;48.418;10.074;2023-06-26T07:42:38;6.33;;;5.83;;
1174;SDS011;576;48.418;10.074;2023-06-26T07:45:08;7.87;;;7.10;;
1174;SDS011;576;48.418;10.074;2023-06-26T07:47:38;7.73;;;6.93;;
1174;SDS011;576;48.418;10.074;2023-06-26T07:50:07;7.10;;;6.40;;
1174;SDS011;576;48.418;10.074;2023-06-26T07:52:38;7.47;;;6.80;;
1174;SDS011;576;48.418;10.074;2023-06-26T07:55:08;7.80;;;7.13;;
1174;SDS011;576;48.418;10.074;2023-06-26T07:57:36;7.43;;;6.87;;
1174;SDS011;576;48.418;10.074;2023-06-26T08:00:05;8.40;;;7.70;;
1174;SDS011;576;48.418;10.074;2023-06-26T08:02:39;7.90;;;7.10;;
1174;SDS011;576;48.418;10.074;2023-06-26T08:05:08;7.60;;;6.90;;
1174;SDS011;576;48.418;10.074;2023-06-26T08:07:36;7.07;;;6.40;;
1174;SDS011;576;48.418;10.074;2023-06-26T08:10:05;7.97;;;7.37;;
1174;SDS011;576;48.418;10.074;2023-06-26T08:12:35;11.10;;;7.10;;
1174;SDS011;576;48.418;10.074;2023-06-26T08:15:07;8.67;;;7.60;;
1174;SDS011;576;48.418;10.074;2023-06-26T08:17:35;8.13;;;7.43;;
1174;SDS011;576;48.418;10.074;2023-06-26T08:20:05;7.73;;;6.97;;
1174;SDS011;576;48.418;10.074;2023-06-26T08:22:35;8.87;;;7.93;;
1174;SDS011;576;48.418;10.074;2023-06-26T08:25:03;7.83;;;7.23;;
1174;SDS011;576;48.418;10.074;2023-06-26T08:27:34;7.90;;;7.20;;
1174;SDS011;576;48.418;10.074;2023-06-26T08:30:02;7.67;;;7.00;;
1174;SDS011;576;48.418;10.074;2023-06-26T08:32:31;7.97;;;7.17;;
1174;SDS011;576;48.418;10.074;2023-06-26T08:34:59;7.93;;;7.23;;
1174;SDS011;576;48.418;10.074;2023-06-26T08:37:27;8.37;;;7.57;;
1174;SDS011;576;48.418;10.074;2023-06-26T08:39:59;7.83;;;7.23;;
1174;SDS011;576;48.418;10.074;2023-06-26T08:42:27;7.87;;;7.10;;
1174;SDS011;576;48.418;10.074;2023-06-26T08:44:57;8.60;;;7.80;;
1174;SDS011;576;48.418;10.074;2023-06-26T08:47:28;8.50;;;7.80;;
1174;SDS011;576;48.418;10.074;2023-06-26T08:50:03;9.20;;;8.30;;
1174;SDS011;576;48.418;10.074;2023-06-26T08:52:36;8.27;;;7.47;;
1174;SDS011;576;48.418;10.074;2023-06-26T08:55:09;7.33;;;6.70;;
1174;SDS011;576;48.418;10.074;2023-06-26T08:57:40;7.80;;;7.10;;
1174;SDS011;576;48.418;10.074;2023-06-26T09:00:12;7.80;;;7.20;;
1174;SDS011;576;48.418;10.074;2023-06-26T09:02:43;7.27;;;6.67;;
1174;SDS011;576;48.418;10.074;2023-06-26T09:05:12;7.93;;;7.23;;
1174;SDS011;576;48.418;10.074;2023-06-26T09:07:40;7.90;;;7.20;;
1174;SDS011;576;48.418;10.074;2023-06-26T09:10:09;7.23;;;6.60;;
1174;SDS011;576;48.418;10.074;2023-06-26T09:12:38;8.97;;;8.07;;
1174;SDS011;576;48.418;10.074;2023-06-26T09:15:06;7.67;;;6.97;;
1174;SDS011;576;48.418;10.074;2023-06-26T09:17:39;8.30;;;7.50;;
1174;SDS011;576;48.418;10.074;2023-06-26T09:20:08;8.00;;;7.30;;
1174;SDS011;576;48.418;10.074;2023-06-26T09:22:40;8.07;;;7.43;;
1174;SDS011;576;48.418;10.074;2023-06-26T09:25:09;9.43;;;7.33;;
1174;SDS011;576;48.418;10.074;2023-06-26T09:27:38;7.13;;;6.53;;
1174;SDS011;576;48.418;10.074;2023-06-26T09:30:06;9.10;;;8.20;;
1174;SDS011;576;48.418;10.074;2023-06-26T09:32:35;8.30;;;7.60;;
1174;SDS011;576;48.418;10.074;2023-06-26T09:35:05;8.50;;;7.80;;
1174;SDS011;576;48.418;10.074;2023-06-26T09:37:34;7.67;;;7.07;;
1174;SDS011;576;48.418;10.074;2023-06-26T09:40:02;7.10;;;6.50;;
1174;SDS011;576;48.418;10.074;2023-06-26T09:42:31;6.83;;;6.23;;
1174;SDS011;576;48.418;10.074;2023-06-26T09:45:00;8.30;;;7.60;;
1174;SDS011;576;48.418;10.074;2023-06-26T09:47:30;7.47;;;6.87;;
1174;SDS011;576;48.418;10.074;2023-06-26T09:49:58;7.10;;;6.50;;
1174;SDS011;576;48.418;10.074;2023-06-26T09:52:28;8.23;;;7.50;;
1174;SDS011;576;48.418;10.074;2023-06-26T09:55:07;8.60;;;7.53;;
1174;SDS011;576;48.418;10.074;2023-06-26T09:57:35;7.87;;;7.27;;
1174;SDS011;576;48.418;10.074;2023-06-26T10:00:05;7.47;;;6.87;;
1174;SDS011;576;48.418;10.074;2023-06-26T10:02:40;7.83;;;7.13;;
1174;SDS011;576;48.418;10.074;2023-06-26T10:05:08;7.20;;;6.50;;
1174;SDS011;576;48.418;10.074;2023-06-26T10:07:38;8.10;;;7.40;;
1174;SDS011;576;48.418;10.074;2023-06-26T10:10:07;7.73;;;7.03;;
1174;SDS011;576;48.418;10.074;2023-06-26T10:12:37;7.80;;;7.00;;
1174;SDS011;576;48.418;10.074;2023-06-26T10:15:06;7.53;;;6.93;;
1174;SDS011;576;48.418;10.074;2023-06-26T10:17:39;7.00;;;6.40;;
1174;SDS011;576;48.418;10.074;2023-06-26T10:20:11;6.90;;;6.30;;
1174;SDS011;576;48.418;10.074;2023-06-26T10:22:45;7.83;;;7.20;;
1174;SDS011;576;48.418;10.074;2023-06-26T10:25:16;7.00;;;6.50;;
1174;SDS011;576;48.418;10.074;2023-06-26T10:27:47;7.47;;;6.87;;
1174;SDS011;576;48.418;10.074;2023-06-26T10:30:20;7.40;;;6.70;;
1174;SDS011;576;48.418;10.074;2023-06-26T10:32:52;7.23;;;6.67;;
1174;SDS011;576;48.418;10.074;2023-06-26T10:35:21;6.70;;;6.20;;
1174;SDS011;576;48.418;10.074;2023-06-26T10:37:52;6.57;;;6.07;;
1174;SDS011;576;48.418;10.074;2023-06-26T10:40:39;8.03;;;7.03;;
1174;SDS011;576;48.418;10.074;2023-06-26T10:43:09;7.17;;;6.57;;
1174;SDS011;576;48.418;10.074;2023-06-26T10:45:42;7.47;;;6.87;;
1174;SDS011;576;48.418;10.074;2023-06-26T10:48:14;7.40;;;6.80;;
1174;SDS011;576;48.418;10.074;2023-06-26T10:50:45;6.07;;;5.60;;
1174;SDS011;576;48.418;10.074;2023-06-26T10:53:22;7.53;;;6.93;;
1174;SDS011;576;48.418;10.074;2023-06-26T10:55:58;7.33;;;6.73;;
1174;SDS011;576;48.418;10.074;2023-06-26T10:58:41;7.10;;;6.60;;
1174;SDS011;576;48.418;10.074;2023-06-26T11:01:20;9.50;;;6.13;;
1174;SDS011;576;48.418;10.074;2023-06-26T11:03:59;6.50;;;6.00;;
1174;SDS011;576;48.418;10.074;2023-06-26T11:06:31;7.70;;;6.87;;
1174;SDS011;576;48.418;10.074;2023-06-26T11:09:06;6.93;;;6.43;;
1174;SDS011;576;48.418;10.074;2023-06-26T11:11:54;7.87;;;7.27;;
1174;SDS011;576;48.418;10.074;2023-06-26T11:14:31;7.30;;;6.60;;
1174;SDS011;576;48.418;10.074;2023-06-26T11:17:04;7.10;;;6.50;;
1174;SDS011;576;48.418;10.074;2023-06-26T11:19:33;7.17;;;6.57;;
1174;SDS011;576;48.418;10.074;2023-06-26T11:22:04;6.60;;;6.10;;
1174;SDS011;576;48.418;10.074;2023-06-26T11:24:34;6.87;;;6.27;;
1174;SDS011;576;48.418;10.074;2023-06-26T11:27:04;8.60;;;6.40;;
1174;SDS011;576;48.418;10.074;2023-06-26T11:29:32;6.97;;;6.47;;
1174;SDS011;576;48.418;10.074;2023-06-26T11:32:01;7.00;;;6.50;;
1174;SDS011;576;48.418;10.074;2023-06-26T11:34:32;6.73;;;6.23;;
1174;SDS011;576;48.418;10.074;2023-06-26T11:37:02;7.40;;;6.70;;
1174;SDS011;576;48.418;10.074;2023-06-26T11:39:30;6.50;;;6.00;;
1174;SDS011;576;48.418;10.074;2023-06-26T11:42:00;7.97;;;7.27;;
1174;SDS011;576;48.418;10.074;2023-06-26T11:44:29;7.30;;;6.80;;
1174;SDS011;576;48.418;10.074;2023-06-26T11:46:58;6.37;;;5.90;;
1174;SDS011;576;48.418;10.074;2023-06-26T11:49:26;7.30;;;6.70;;
1174;SDS011;576;48.418;10.074;2023-06-26T11:51:56;6.40;;;5.93;;
1174;SDS011;576;48.418;10.074;2023-06-26T11:54:25;6.43;;;5.90;;
1174;SDS011;576;48.418;10.074;2023-06-26T11:56:54;7.13;;;6.53;;
1174;SDS011;576;48.418;10.074;2023-06-26T11:59:37;7.00;;;6.40;;
1174;SDS011;576;48.418;10.074;2023-06-26T12:02:06;6.80;;;6.23;;
1174;SDS011;576;48.418;10.074;2023-06-26T12:04:36;6.73;;;6.23;;
1174;SDS011;576;48.418;10.074;2023-06-26T12:07:06;7.00;;;6.37;;
1174;SDS011;576;48.418;10.074;2023-06-26T12:09:39;7.07;;;6.50;;
1174;SDS011;576;48.418;10.074;2023-06-26T12:12:10;6.50;;;6.00;;
1174;SDS011;576;48.418;10.074;2023-06-26T12:14:41;6.40;;;5.90;;
1174;SDS011;576;48.418;10.074;2023-06-26T12:17:09;7.20;;;6.60;;
1174;SDS011;576;48.418;10.074;2023-06-26T12:19:39;6.90;;;6.40;;
1174;SDS011;576;48.418;10.074;2023-06-26T12:22:10;6.60;;;6.00;;
1174;SDS011;576;48.418;10.074;2023-06-26T12:24:39;6.70;;;6.30;;
1174;SDS011;576;48.418;10.074;2023-06-26T12:27:09;6.53;;;5.93;;
1174;SDS011;576;48.418;10.074;2023-06-26T12:29:39;6.70;;;6.20;;
1174;SDS011;576;48.418;10.074;2023-06-26T12:32:12;6.37;;;5.87;;
1174;SDS011;576;48.418;10.074;2023-06-26T12:34:42;5.63;;;5.23;;
1174;SDS011;576;48.418;10.074;2023-06-26T12:37:16;6.73;;;6.00;;
1174;SDS011;576;48.418;10.074;2023-06-26T12:39:45;6.30;;;5.80;;
1174;SDS011;576;48.418;10.074;2023-06-26T12:42:14;6.53;;;6.03;;
1174;SDS011;576;48.418;10.074;2023-06-26T12:44:44;6.93;;;6.33;;
1174;SDS011;576;48.418;10.074;2023-06-26T12:47:14;6.00;;;5.40;;
1174;SDS011;576;48.418;10.074;2023-06-26T12:49:43;5.70;;;5.20;;
1174;SDS011;576;48.418;10.074;2023-06-26T12:52:13;6.30;;;5.90;;
1174;SDS011;576;48.418;10.074;2023-06-26T12:54:42;5.87;;;5.43;;
1174;SDS011;576;48.418;10.074;2023-06-26T12:57:13;5.97;;;5.47;;
1174;SDS011;576;48.418;10.074;2023-06-26T12:59:41;6.27;;;5.77;;
1174;SDS011;576;48.418;10.074;2023-06-26T13:02:11;5.80;;;5.30;;
1174;SDS011;576;48.418;10.074;2023-06-26T13:04:40;6.60;;;6.10;;
1174;SDS011;576;48.418;10.074;2023-06-26T13:07:11;5.47;;;5.07;;
1174;SDS011;576;48.418;10.074;2023-06-26T13:09:39;4.90;;;4.60;;
1174;SDS011;576;48.418;10.074;2023-06-26T13:12:08;5.20;;;4.90;;
1174;SDS011;576;48.418;10.074;2023-06-26T13:14:36;5.43;;;5.03;;
1174;SDS011;576;48.418;10.074;2023-06-26T13:17:05;5.47;;;5.07;;
1174;SDS011;576;48.418;10.074;2023-06-26T13:19:37;5.83;;;5.43;;
1174;SDS011;576;48.418;10.074;2023-06-26T13:22:05;6.30;;;5.80;;
1174;SDS011;576;48.418;10.074;2023-06-26T13:24:33;4.87;;;4.57;;
1174;SDS011;576;48.418;10.074;2023-06-26T13:27:02;5.90;;;5.40;;
1174;SDS011;576;48.418;10.074;2023-06-26T13:29:31;5.80;;;5.30;;
1174;SDS011;576;48.418;10.074;2023-06-26T13:31:59;5.97;;;5.57;;
1174;SDS011;576;48.418;10.074;2023-06-26T13:34:28;5.37;;;4.97;;
1174;SDS011;576;48.418;10.074;2023-06-26T13:36:57;5.70;;;5.30;;
1174;SDS011;576;48.418;10.074;2023-06-26T13:39:27;5.97;;;5.37;;
1174;SDS011;576;48.418;10.074;2023-06-26T13:41:55;5.03;;;4.63;;
1174;SDS011;576;48.418;10.074;2023-06-26T13:44:24;6.40;;;5.90;;
1174;SDS011;576;48.418;10.074;2023-06-26T13:47:04;6.10;;;5.50;;
1174;SDS011;576;48.418;10.074;2023-06-26T13:49:35;5.10;;;4.70;;
1174;SDS011;576;48.418;10.074;2023-06-26T13:52:05;6.10;;;5.63;;
1174;SDS011;576;48.418;10.074;2023-06-26T13:54:35;5.70;;;5.30;;
1174;SDS011;576;48.418;10.074;2023-06-26T13:57:06;5.57;;;5.17;;
1174;SDS011;576;48.418;10.074;2023-06-26T13:59:36;4.43;;;4.13;;
1174;SDS011;576;48.418;10.074;2023-06-26T14:02:05;4.67;;;4.37;;
1174;SDS011;576;48.418;10.074;2023-06-26T14:04:34;4.47;;;4.17;;
1174;SDS011;576;48.418;10.074;2023-06-26T14:07:05;4.87;;;4.47;;
1174;SDS011;576;48.418;10.074;2023-06-26T14:09:35;5.60;;;4.80;;
1174;SDS011;576;48.418;10.074;2023-06-26T14:12:03;5.10;;;4.80;;
1174;SDS011;576;48.418;10.074;2023-06-26T14:14:33;4.63;;;4.27;;
1174;SDS011;576;48.418;10.074;2023-06-26T14:17:01;5.63;;;5.10;;
1174;SDS011;576;48.418;10.074;2023-06-26T14:19:31;5.30;;;4.90;;
1174;SDS011;576;48.418;10.074;2023-06-26T14:21:59;4.53;;;4.20;;
1174;SDS011;576;48.418;10.074;2023-06-26T14:24:29;5.20;;;4.80;;
1174;SDS011;576;48.418;10.074;2023-06-26T14:26:57;5.00;;;4.70;;
1174;SDS011;576;48.418;10.074;2023-06-26T14:29:25;4.63;;;4.23;;
1174;SDS011;576;48.418;10.074;2023-06-26T14:31:54;4.97;;;4.67;;
1174;SDS011;576;48.418;10.074;2023-06-26T14:34:22;4.73;;;4.43;;
1174;SDS011;576;48.418;10.074;2023-06-26T14:36:50;5.20;;;4.80;;
1174;SDS011;576;48.418;10.074;2023-06-26T14:39:19;4.63;;;4.23;;
1174;SDS011;576;48.418;10.074;2023-06-26T14:41:49;5.37;;;4.97;;
1174;SDS011;576;48.418;10.074;2023-06-26T14:44:17;5.07;;;4.67;;
1174;SDS011;576;48.418;10.074;2023-06-26T14:46:46;3.97;;;3.77;;
1174;SDS011;576;48.418;10.074;2023-06-26T14:49:14;4.23;;;3.97;;
1174;SDS011;576;48.418;10.074;2023-06-26T14:51:42;4.10;;;3.80;;
1174;SDS011;576;48.418;10.074;2023-06-26T14:54:11;4.40;;;4.10;;
1174;SDS011;576;48.418;10.074;2023-06-26T14:56:39;4.30;;;4.00;;
1174;SDS011;576;48.418;10.074;2023-06-26T14:59:08;4.10;;;3.80;;
1174;SDS011;576;48.418;10.074;2023-06-26T15:01:37;4.53;;;4.23;;
1174;SDS011;576;48.418;10.074;2023-06-26T15:04:06;4.17;;;3.87;;
1174;SDS011;576;48.418;10.074;2023-06-26T15:06:35;4.83;;;4.43;;
1174;SDS011;576;48.418;10.074;2023-06-26T15:09:04;4.37;;;4.07;;
1174;SDS011;576;48.418;10.074;2023-06-26T15:11:32;4.00;;;3.70;;
1174;SDS011;576;48.418;10.074;2023-06-26T15:14:01;4.67;;;4.37;;
1174;SDS011;576;48.418;10.074;2023-06-26T15:16:30;6.80;;;6.13;;
1174;SDS011;576;48.418;10.074;2023-06-26T15:18:58;4.40;;;4.00;;
1174;SDS011;576;48.418;10.074;2023-06-26T15:21:27;4.23;;;3.93;;
1174;SDS011;576;48.418;10.074;2023-06-26T15:23:55;4.40;;;4.00;;
1174;SDS011;576;48.418;10.074;2023-06-26T15:26:23;4.27;;;3.97;;
1174;SDS011;576;48.418;10.074;2023-06-26T15:28:52;4.33;;;3.93;;
1174;SDS011;576;48.418;10.074;2023-06-26T15:31:20;4.17;;;3.87;;